createdAt,value
2023-04-16T00:00:48.498Z,100076.60
2023-04-16T00:03:25.581Z,100076.20
2023-04-16T00:06:02.421Z,100071.00
2023-04-16T00:08:39.822Z,100075.00
2023-04-16T00:11:16.476Z,100078.40
2023-04-16T00:13:53.871Z,100077.60
2023-04-16T00:16:31.964Z,100081.40
2023-04-16T00:19:08.895Z,100078.20
2023-04-16T00:21:46.582Z,100077.00
2023-04-16T00:24:23.096Z,100078.80
2023-04-16T00:26:59.892Z,100078.60
2023-04-16T00:29:37.371Z,100080.60
2023-04-16T00:32:13.739Z,100084.00
2023-04-16T00:34:50.245Z,100085.00
2023-04-16T00:37:29.010Z,100087.00
2023-04-16T00:40:06.346Z,100089.40
2023-04-16T00:42:43.657Z,100088.00
2023-04-16T00:45:23.194Z,100091.40
2023-04-16T00:48:00.675Z,100094.60
2023-04-16T00:50:38.649Z,100092.40
2023-04-16T00:53:16.014Z,100094.20
2023-04-16T00:55:56.230Z,100091.40
2023-04-16T00:58:33.796Z,100092.60
2023-04-16T01:01:10.816Z,100096.60
2023-04-16T01:03:49.872Z,100090.80
2023-04-16T01:06:26.468Z,100090.80
2023-04-16T01:09:04.014Z,100093.80
2023-04-16T01:11:41.119Z,100096.40
2023-04-16T01:14:18.130Z,100100.00
2023-04-16T01:16:54.389Z,100105.80
2023-04-16T01:19:31.380Z,100105.60
2023-04-16T01:22:08.357Z,100102.40
2023-04-16T01:24:45.009Z,100100.40
2023-04-16T01:27:20.627Z,100099.20
2023-04-16T01:29:58.148Z,100100.40
2023-04-16T01:32:45.720Z,100097.40
2023-04-16T01:35:23.618Z,100100.60
2023-04-16T01:37:59.933Z,100100.40
2023-04-16T01:40:37.016Z,100101.20
2023-04-16T01:43:14.595Z,100105.00
2023-04-16T01:45:51.355Z,100108.60
2023-04-16T01:48:28.113Z,100102.60
2023-04-16T01:51:05.082Z,100097.00
2023-04-16T01:53:43.552Z,100097.40
2023-04-16T01:56:20.797Z,100101.20
2023-04-16T01:58:58.122Z,100107.00
2023-04-16T02:01:37.687Z,100109.20
2023-04-16T02:04:14.300Z,100111.40
2023-04-16T02:06:51.334Z,100115.00
2023-04-16T02:09:28.469Z,100118.20
2023-04-16T02:12:05.500Z,100113.80
2023-04-16T02:14:42.213Z,100115.20
2023-04-16T02:17:19.441Z,100113.40
2023-04-16T02:19:59.959Z,100110.80
2023-04-16T02:22:36.876Z,100108.40
2023-04-16T02:25:16.543Z,100107.80
2023-04-16T02:27:53.876Z,100108.80
2023-04-16T02:30:44.300Z,100108.00
2023-04-16T02:33:21.340Z,100102.80
2023-04-16T02:36:04.938Z,100103.20
2023-04-16T02:38:42.743Z,100104.00
2023-04-16T02:41:19.483Z,100111.60
2023-04-16T02:43:56.737Z,100114.80
2023-04-16T02:46:37.501Z,100111.00
2023-04-16T02:49:14.605Z,100107.80
2023-04-16T02:52:02.977Z,100112.40
2023-04-16T02:54:39.905Z,100118.60
2023-04-16T02:57:16.350Z,100119.20
2023-04-16T02:59:53.492Z,100120.80
2023-04-16T03:02:30.398Z,100122.00
2023-04-16T03:05:07.182Z,100133.60
2023-04-16T03:07:43.205Z,100138.20
2023-04-16T03:10:20.068Z,100144.20
2023-04-16T03:12:56.735Z,100135.80
2023-04-16T03:15:33.778Z,100139.40
2023-04-16T03:18:11.826Z,100142.80
2023-04-16T03:20:48.326Z,100143.00
2023-04-16T03:23:25.378Z,100139.40
2023-04-16T03:26:02.523Z,100143.60
2023-04-16T03:28:40.052Z,100147.20
2023-04-16T03:31:17.230Z,100153.00
2023-04-16T03:33:54.488Z,100158.40
2023-04-16T03:36:31.210Z,100156.80
2023-04-16T03:39:08.147Z,100158.00
2023-04-16T03:41:50.618Z,100160.60
2023-04-16T03:44:27.302Z,100159.20
2023-04-16T03:47:05.139Z,100161.00
2023-04-16T03:49:41.546Z,100164.20
2023-04-16T03:52:18.243Z,100162.20
2023-04-16T03:54:54.159Z,100166.40
2023-04-16T03:57:35.113Z,100165.80
2023-04-16T04:00:22.403Z,100167.40
2023-04-16T04:03:12.707Z,100176.80
2023-04-16T04:05:50.865Z,100175.00
2023-04-16T04:08:33.525Z,100173.60
2023-04-16T04:11:09.953Z,100178.00
2023-04-16T04:13:48.841Z,100175.00
2023-04-16T04:16:25.358Z,100176.80
2023-04-16T04:19:01.785Z,100176.00
2023-04-16T04:21:38.952Z,100177.20
2023-04-16T04:24:16.053Z,100179.00
2023-04-16T04:26:52.984Z,100180.60
2023-04-16T04:29:29.781Z,100182.00
2023-04-16T04:32:05.685Z,100184.60
2023-04-16T04:34:43.319Z,100189.20
2023-04-16T04:37:20.005Z,100196.00
2023-04-16T04:39:56.089Z,100202.00
2023-04-16T04:42:32.953Z,100199.20
2023-04-16T04:45:13.310Z,100201.20
2023-04-16T04:47:50.305Z,100204.80
2023-04-16T04:50:28.226Z,100209.80
2023-04-16T04:53:07.579Z,100214.40
2023-04-16T04:55:45.268Z,100217.60
2023-04-16T04:58:21.069Z,100218.40
2023-04-16T05:00:58.840Z,100227.20
2023-04-16T05:03:37.345Z,100224.60
2023-04-16T05:06:15.886Z,100226.40
2023-04-16T05:08:51.738Z,100219.80
2023-04-16T05:11:29.437Z,100211.00
2023-04-16T05:14:05.889Z,100207.80
2023-04-16T05:16:43.902Z,100207.20
2023-04-16T05:19:20.853Z,100215.20
2023-04-16T05:21:56.960Z,100222.40
2023-04-16T05:24:32.847Z,100224.40
2023-04-16T05:27:09.744Z,100230.40
2023-04-16T05:29:45.836Z,100235.40
2023-04-16T05:32:21.962Z,100235.40
2023-04-16T05:34:58.461Z,100241.20
2023-04-16T05:37:35.079Z,100244.60
2023-04-16T05:40:16.341Z,100248.60
2023-04-16T05:42:53.563Z,100251.20
2023-04-16T05:45:31.393Z,100258.80
2023-04-16T05:48:09.106Z,100265.80
2023-04-16T05:50:45.699Z,100274.20
2023-04-16T05:53:22.127Z,100281.20
2023-04-16T05:55:59.035Z,100288.60
2023-04-16T05:58:36.852Z,100283.00
2023-04-16T06:01:14.544Z,100280.20
2023-04-16T06:03:51.505Z,100283.60
2023-04-16T06:06:29.142Z,100285.40
2023-04-16T06:09:05.781Z,100288.40
2023-04-16T06:11:41.772Z,100290.60
2023-04-16T06:14:18.141Z,100290.20
2023-04-16T06:16:55.218Z,100287.20
2023-04-16T06:19:31.821Z,100292.40
2023-04-16T06:22:08.714Z,100293.40
2023-04-16T06:24:46.259Z,100298.00
2023-04-16T06:27:22.811Z,100296.80
2023-04-16T06:29:59.538Z,100300.60
2023-04-16T06:32:36.156Z,100301.40
2023-04-16T06:35:15.022Z,100299.40
2023-04-16T06:37:52.143Z,100307.60
2023-04-16T06:40:28.936Z,100304.00
2023-04-16T06:43:06.209Z,100306.80
2023-04-16T06:45:43.494Z,100307.20
2023-04-16T06:48:20.511Z,100310.00
2023-04-16T06:50:58.785Z,100312.00
2023-04-16T06:53:35.880Z,100309.40
2023-04-16T06:56:15.768Z,100308.80
2023-04-16T06:58:53.095Z,100309.00
2023-04-16T07:01:29.588Z,100306.20
2023-04-16T07:04:06.165Z,100303.20
2023-04-16T07:06:42.584Z,100310.80
2023-04-16T07:09:20.336Z,100307.40
2023-04-16T07:11:57.189Z,100312.00
2023-04-16T07:14:33.512Z,100311.40
2023-04-16T07:17:10.510Z,100311.80
2023-04-16T07:19:47.189Z,100309.80
2023-04-16T07:22:24.638Z,100308.40
2023-04-16T07:25:01.391Z,100310.40
2023-04-16T07:27:38.783Z,100312.20
2023-04-16T07:30:19.263Z,100310.00
2023-04-16T07:32:56.057Z,100308.60
2023-04-16T07:35:32.400Z,100310.40
2023-04-16T07:38:08.920Z,100306.20
2023-04-16T07:40:46.343Z,100306.80
2023-04-16T07:43:23.620Z,100305.80
2023-04-16T07:46:00.327Z,100311.80
2023-04-16T07:48:37.426Z,100313.00
2023-04-16T07:51:15.017Z,100316.40
2023-04-16T07:53:52.175Z,100315.60
2023-04-16T07:56:28.667Z,100316.60
2023-04-16T07:59:21.070Z,100318.20
2023-04-16T08:02:00.725Z,100319.00
2023-04-16T08:04:37.487Z,100316.00
2023-04-16T08:07:14.081Z,100320.20
2023-04-16T08:09:57.462Z,100325.00
2023-04-16T08:12:33.823Z,100328.60
2023-04-16T08:15:14.432Z,100327.40
2023-04-16T08:17:51.073Z,100324.80
2023-04-16T08:20:28.310Z,100323.00
2023-04-16T08:23:05.473Z,100326.00
2023-04-16T08:25:41.627Z,100328.60
2023-04-16T08:28:18.424Z,100321.60
2023-04-16T08:30:55.413Z,100321.20
2023-04-16T08:33:32.969Z,100326.00
2023-04-16T08:36:10.874Z,100325.00
2023-04-16T08:38:47.799Z,100324.60
2023-04-16T08:41:27.935Z,100325.60
2023-04-16T08:44:09.999Z,100325.40
2023-04-16T08:46:50.660Z,100328.80
2023-04-16T08:49:27.981Z,100331.20
2023-04-16T08:52:09.363Z,100328.20
2023-04-16T08:55:00.681Z,100338.00
2023-04-16T08:57:46.246Z,100338.20
2023-04-16T09:00:25.976Z,100338.00
2023-04-16T09:03:03.084Z,100342.20
2023-04-16T09:05:41.635Z,100340.20
2023-04-16T09:08:18.543Z,100336.80
2023-04-16T09:10:56.487Z,100341.40
2023-04-16T09:13:33.942Z,100341.00
2023-04-16T09:16:12.737Z,100337.40
2023-04-16T09:18:49.181Z,100333.80
2023-04-16T09:21:25.881Z,100335.00
2023-04-16T09:24:04.973Z,100337.20
2023-04-16T09:26:43.814Z,100337.00
2023-04-16T09:29:41.621Z,100341.20
2023-04-16T09:32:19.281Z,100338.00
2023-04-16T09:35:07.210Z,100341.60
2023-04-16T09:37:44.286Z,100342.60
2023-04-16T09:40:30.887Z,100340.80
2023-04-16T09:43:16.672Z,100340.00
2023-04-16T09:46:01.079Z,100339.60
2023-04-16T09:48:39.782Z,100340.80
2023-04-16T09:51:16.395Z,100341.00
2023-04-16T09:53:59.187Z,100340.80
2023-04-16T09:56:36.866Z,100337.80
2023-04-16T09:59:18.748Z,100338.60
2023-04-16T10:02:15.175Z,100336.00
2023-04-16T10:04:58.444Z,100337.80
2023-04-16T10:07:39.259Z,100335.20
2023-04-16T10:10:21.475Z,100326.60
2023-04-16T10:12:59.933Z,100326.00
2023-04-16T10:15:37.400Z,100322.00
2023-04-16T10:18:16.853Z,100329.40
2023-04-16T10:20:54.165Z,100333.20
2023-04-16T10:23:32.450Z,100335.20
2023-04-16T10:26:10.742Z,100336.00
2023-04-16T10:28:48.010Z,100336.00
2023-04-16T10:31:29.199Z,100336.40
2023-04-16T10:34:07.335Z,100333.20
2023-04-16T10:36:46.113Z,100337.20
2023-04-16T10:39:40.145Z,100334.20
2023-04-16T10:42:18.070Z,100332.40
2023-04-16T10:44:56.200Z,100336.80
2023-04-16T10:47:34.295Z,100331.80
2023-04-16T10:50:23.272Z,100330.60
2023-04-16T10:53:27.967Z,100323.40
2023-04-16T10:56:18.191Z,100314.00
2023-04-16T10:58:55.231Z,100316.40
2023-04-16T11:01:38.262Z,100321.40
2023-04-16T11:04:40.303Z,100315.80
2023-04-16T11:07:23.629Z,100315.40
2023-04-16T11:10:06.341Z,100318.80
2023-04-16T11:12:45.138Z,100318.80
2023-04-16T11:15:23.495Z,100314.60
2023-04-16T11:18:00.267Z,100314.20
2023-04-16T11:20:38.100Z,100305.60
2023-04-16T11:23:19.217Z,100304.00
2023-04-16T11:25:58.008Z,100305.00
2023-04-16T11:28:44.500Z,100308.80
2023-04-16T11:31:20.820Z,100302.60
2023-04-16T11:33:57.732Z,100300.60
2023-04-16T11:36:48.858Z,100299.60
2023-04-16T11:39:25.481Z,100299.00
2023-04-16T11:42:02.229Z,100297.20
2023-04-16T11:44:39.709Z,100297.80
2023-04-16T11:47:16.805Z,100294.40
2023-04-16T11:49:53.913Z,100287.80
2023-04-16T11:52:35.110Z,100285.60
2023-04-16T11:55:14.151Z,100289.40
2023-04-16T11:57:52.117Z,100284.80
2023-04-16T12:00:37.084Z,100283.40
2023-04-16T12:03:14.030Z,100283.20
2023-04-16T12:05:50.526Z,100283.00
2023-04-16T12:08:37.191Z,100281.00
2023-04-16T12:11:13.783Z,100281.80
2023-04-16T12:14:13.441Z,100280.80
2023-04-16T12:16:50.236Z,100278.60
2023-04-16T12:19:27.077Z,100274.60
2023-04-16T12:22:08.296Z,100272.80
2023-04-16T12:24:46.263Z,100270.40
2023-04-16T12:27:23.156Z,100265.40
2023-04-16T12:30:15.802Z,100261.40
2023-04-16T12:33:16.368Z,100261.20
2023-04-16T12:35:52.265Z,100267.40
2023-04-16T12:38:28.391Z,100261.60
2023-04-16T12:41:05.574Z,100257.20
2023-04-16T12:43:44.380Z,100261.00
2023-04-16T12:46:21.293Z,100255.80
2023-04-16T12:48:59.245Z,100255.00
2023-04-16T12:51:36.269Z,100256.00
2023-04-16T12:54:14.332Z,100258.00
2023-04-16T12:56:50.919Z,100256.80
2023-04-16T12:59:27.586Z,100258.40
2023-04-16T13:02:05.849Z,100256.00
2023-04-16T13:04:42.157Z,100253.60
2023-04-16T13:07:19.230Z,100253.40
2023-04-16T13:09:56.480Z,100251.20
2023-04-16T13:12:35.102Z,100249.60
2023-04-16T13:15:16.233Z,100249.40
2023-04-16T13:17:52.622Z,100247.00
2023-04-16T13:20:29.793Z,100243.80
2023-04-16T13:23:06.304Z,100240.20
2023-04-16T13:25:43.364Z,100246.00
2023-04-16T13:28:19.750Z,100252.60
2023-04-16T13:30:57.118Z,100250.80
2023-04-16T13:33:34.072Z,100241.80
2023-04-16T13:36:12.182Z,100241.40
2023-04-16T13:38:49.399Z,100236.60
2023-04-16T13:41:26.531Z,100238.60
2023-04-16T13:44:03.748Z,100241.00
2023-04-16T13:46:41.138Z,100244.40
2023-04-16T13:49:19.414Z,100246.00
2023-04-16T13:51:55.759Z,100243.20
2023-04-16T13:54:32.828Z,100245.40
2023-04-16T13:57:09.898Z,100243.40
2023-04-16T13:59:47.310Z,100252.60
2023-04-16T14:02:26.558Z,100256.00
2023-04-16T14:05:03.011Z,100261.40
2023-04-16T14:07:40.279Z,100263.80
2023-04-16T14:10:17.407Z,100258.60
2023-04-16T14:12:54.229Z,100259.60
2023-04-16T14:15:30.767Z,100261.80
2023-04-16T14:18:07.937Z,100259.80
2023-04-16T14:20:44.527Z,100261.60
2023-04-16T14:23:20.507Z,100261.60
2023-04-16T14:25:57.494Z,100259.80
2023-04-16T14:28:33.858Z,100256.60
2023-04-16T14:31:10.818Z,100258.40
2023-04-16T14:33:48.198Z,100266.60
2023-04-16T14:36:25.206Z,100263.40
2023-04-16T14:39:02.666Z,100262.80
2023-04-16T14:41:38.616Z,100266.60
2023-04-16T14:44:15.317Z,100266.60
2023-04-16T14:46:52.338Z,100261.40
2023-04-16T14:49:29.269Z,100261.00
2023-04-16T14:52:07.353Z,100264.00
2023-04-16T14:54:44.384Z,100268.20
2023-04-16T14:57:20.508Z,100274.40
2023-04-16T14:59:57.470Z,100275.40
2023-04-16T15:02:34.695Z,100276.40
2023-04-16T15:05:14.490Z,100267.80
2023-04-16T15:07:50.694Z,100266.40
2023-04-16T15:10:28.875Z,100271.80
2023-04-16T15:13:05.361Z,100278.20
2023-04-16T15:15:42.710Z,100281.00
2023-04-16T15:18:19.947Z,100279.60
2023-04-16T15:20:55.644Z,100283.00
2023-04-16T15:23:33.101Z,100282.00
2023-04-16T15:26:10.090Z,100285.60
2023-04-16T15:28:46.221Z,100288.40
2023-04-16T15:31:23.283Z,100289.20
2023-04-16T15:33:59.710Z,100288.20
2023-04-16T15:36:37.036Z,100288.40
2023-04-16T15:39:13.932Z,100289.40
2023-04-16T15:42:00.512Z,100289.00
2023-04-16T15:44:40.788Z,100290.40
2023-04-16T15:47:18.604Z,100291.60
2023-04-16T15:49:56.242Z,100291.80
2023-04-16T15:52:33.097Z,100294.20
2023-04-16T15:55:11.657Z,100291.20
2023-04-16T15:57:49.004Z,100296.00
2023-04-16T16:00:26.303Z,100304.40
2023-04-16T16:03:03.398Z,100305.80
2023-04-16T16:05:40.443Z,100308.60
2023-04-16T16:08:17.181Z,100310.40
2023-04-16T16:10:52.529Z,100316.60
2023-04-16T16:13:29.140Z,100323.20
2023-04-16T16:16:05.816Z,100318.20
2023-04-16T16:18:44.785Z,100314.60
2023-04-16T16:21:22.027Z,100314.20
2023-04-16T16:23:58.459Z,100316.80
2023-04-16T16:26:34.522Z,100325.60
2023-04-16T16:29:11.971Z,100333.40
2023-04-16T16:31:48.500Z,100332.00
2023-04-16T16:34:25.565Z,100329.00
2023-04-16T16:37:02.828Z,100335.80
2023-04-16T16:39:39.063Z,100340.80
2023-04-16T16:42:18.967Z,100340.60
2023-04-16T16:44:57.536Z,100340.20
2023-04-16T16:47:34.456Z,100338.00
2023-04-16T16:50:14.200Z,100342.40
2023-04-16T16:52:51.274Z,100343.40
2023-04-16T16:55:28.362Z,100347.20
2023-04-16T16:58:05.960Z,100359.00
2023-04-16T17:00:42.513Z,100368.00
2023-04-16T17:03:19.598Z,100380.00
2023-04-16T17:05:56.799Z,100383.40
2023-04-16T17:08:33.806Z,100389.80
2023-04-16T17:11:13.477Z,100390.60
2023-04-16T17:13:49.385Z,100394.00
2023-04-16T17:16:26.304Z,100399.20
2023-04-16T17:19:03.432Z,100403.80
2023-04-16T17:21:41.409Z,100401.40
2023-04-16T17:24:18.350Z,100404.60
2023-04-16T17:26:56.260Z,100402.40
2023-04-16T17:29:34.329Z,100409.20
2023-04-16T17:32:13.096Z,100411.60
2023-04-16T17:34:49.780Z,100415.20
2023-04-16T17:37:25.878Z,100421.80
2023-04-16T17:40:07.704Z,100421.60
2023-04-16T17:42:44.808Z,100424.40
2023-04-16T17:45:23.405Z,100429.80
2023-04-16T17:47:59.968Z,100430.20
2023-04-16T17:50:38.939Z,100437.20
2023-04-16T17:53:15.962Z,100443.00
2023-04-16T17:55:58.862Z,100447.80
2023-04-16T17:58:35.944Z,100450.60
2023-04-16T18:01:12.291Z,100448.40
2023-04-16T18:03:49.896Z,100447.60
2023-04-16T18:06:27.857Z,100447.40
2023-04-16T18:09:05.400Z,100451.40
2023-04-16T18:11:43.118Z,100453.20
2023-04-16T18:14:20.574Z,100457.80
2023-04-16T18:16:58.654Z,100457.80
2023-04-16T18:19:35.737Z,100462.40
2023-04-16T18:22:13.325Z,100464.60
2023-04-16T18:24:50.730Z,100465.20
2023-04-16T18:27:27.760Z,100463.80
2023-04-16T18:30:05.282Z,100468.60
2023-04-16T18:32:54.984Z,100472.00
2023-04-16T18:35:40.965Z,100472.20
2023-04-16T18:38:17.519Z,100472.60
2023-04-16T18:40:54.148Z,100472.80
2023-04-16T18:43:31.664Z,100476.60
2023-04-16T18:46:08.433Z,100481.20
2023-04-16T18:48:45.543Z,100484.20
2023-04-16T18:51:21.541Z,100485.80
2023-04-16T18:53:59.108Z,100485.20
2023-04-16T18:56:35.783Z,100488.00
2023-04-16T18:59:12.610Z,100485.60
2023-04-16T19:01:49.647Z,100495.60
2023-04-16T19:04:26.271Z,100497.20
2023-04-16T19:07:02.321Z,100503.80
2023-04-16T19:09:39.379Z,100511.40
2023-04-16T19:12:17.087Z,100509.60
2023-04-16T19:14:53.247Z,100516.80
2023-04-16T19:17:30.819Z,100514.40
2023-04-16T19:20:11.740Z,100515.60
2023-04-16T19:22:48.516Z,100519.20
2023-04-16T19:25:25.404Z,100514.80
2023-04-16T19:28:01.940Z,100523.40
2023-04-16T19:30:39.659Z,100528.20
2023-04-16T19:33:16.003Z,100531.20
2023-04-16T19:35:51.460Z,100538.60
2023-04-16T19:38:28.100Z,100539.00
2023-04-16T19:41:05.302Z,100536.80
2023-04-16T19:43:42.062Z,100533.40
2023-04-16T19:46:18.629Z,100535.80
2023-04-16T19:48:54.651Z,100538.20
2023-04-16T19:51:32.037Z,100531.20
2023-04-16T19:54:09.709Z,100536.00
2023-04-16T19:56:45.756Z,100536.40
2023-04-16T19:59:22.558Z,100535.80
2023-04-16T20:01:59.094Z,100541.00
2023-04-16T20:04:36.659Z,100537.00
2023-04-16T20:07:13.719Z,100533.80
2023-04-16T20:09:50.885Z,100533.60
2023-04-16T20:12:27.885Z,100536.00
2023-04-16T20:15:04.834Z,100532.60
2023-04-16T20:17:43.022Z,100536.20
2023-04-16T20:20:19.892Z,100535.20
2023-04-16T20:22:55.773Z,100536.60
2023-04-16T20:25:32.203Z,100535.60
2023-04-16T20:28:09.039Z,100531.80
2023-04-16T20:30:44.716Z,100531.80
2023-04-16T20:33:20.521Z,100535.60
2023-04-16T20:35:57.172Z,100534.80
2023-04-16T20:38:35.869Z,100533.60
2023-04-16T20:41:20.561Z,100534.60
2023-04-16T20:43:57.701Z,100539.80
2023-04-16T20:46:36.513Z,100541.80
2023-04-16T20:49:13.988Z,100543.00
2023-04-16T20:51:51.877Z,100541.40
2023-04-16T20:54:29.207Z,100535.00
2023-04-16T20:57:06.278Z,100534.40
2023-04-16T20:59:42.599Z,100534.80
2023-04-16T21:02:20.529Z,100530.40
2023-04-16T21:04:57.147Z,100530.40
2023-04-16T21:07:34.396Z,100533.40
2023-04-16T21:10:17.782Z,100530.20
2023-04-16T21:12:54.636Z,100531.20
2023-04-16T21:15:30.936Z,100533.00
2023-04-16T21:18:08.873Z,100534.60
2023-04-16T21:20:46.555Z,100534.20
2023-04-16T21:23:23.505Z,100532.00
2023-04-16T21:26:02.363Z,100530.80
2023-04-16T21:28:38.983Z,100533.20
2023-04-16T21:31:15.750Z,100528.80
2023-04-16T21:33:52.285Z,100527.40
2023-04-16T21:36:29.399Z,100528.20
2023-04-16T21:39:05.650Z,100531.40
2023-04-16T21:41:42.784Z,100532.40
2023-04-16T21:44:19.165Z,100527.40
2023-04-16T21:46:55.595Z,100528.60
2023-04-16T21:49:32.607Z,100526.60
2023-04-16T21:52:15.134Z,100524.60
2023-04-16T21:54:51.344Z,100524.00
2023-04-16T21:57:28.004Z,100528.20
2023-04-16T22:00:09.593Z,100530.40
2023-04-16T22:02:45.758Z,100526.40
2023-04-16T22:05:22.726Z,100522.00
2023-04-16T22:08:02.575Z,100520.60
2023-04-16T22:10:44.509Z,100521.40
2023-04-16T22:13:21.142Z,100518.40
2023-04-16T22:15:57.752Z,100516.00
2023-04-16T22:18:34.867Z,100511.20
2023-04-16T22:21:12.407Z,100511.80
2023-04-16T22:23:50.216Z,100509.00
2023-04-16T22:26:26.372Z,100506.00
2023-04-16T22:29:03.328Z,100506.20
2023-04-16T22:31:40.973Z,100509.00
2023-04-16T22:34:17.540Z,100508.40
2023-04-16T22:36:54.523Z,100511.60
2023-04-16T22:39:31.723Z,100511.40
2023-04-16T22:42:08.459Z,100515.40
2023-04-16T22:44:50.256Z,100515.00
2023-04-16T22:47:27.523Z,100514.00
2023-04-16T22:50:04.684Z,100511.80
2023-04-16T22:52:40.767Z,100505.40
2023-04-16T22:55:19.070Z,100502.00
2023-04-16T22:57:55.560Z,100503.20
2023-04-16T23:00:32.790Z,100500.60
2023-04-16T23:03:09.216Z,100499.00
2023-04-16T23:05:45.283Z,100493.20
2023-04-16T23:08:21.594Z,100495.00
2023-04-16T23:10:57.823Z,100498.60
2023-04-16T23:13:34.453Z,100495.60
2023-04-16T23:16:13.368Z,100495.20
2023-04-16T23:18:49.753Z,100488.80
2023-04-16T23:21:26.077Z,100490.60
2023-04-16T23:24:03.692Z,100494.60
2023-04-16T23:26:40.087Z,100491.00
2023-04-16T23:29:16.772Z,100489.60
2023-04-16T23:31:53.846Z,100487.20
2023-04-16T23:34:30.568Z,100485.60
2023-04-16T23:37:07.822Z,100487.40
2023-04-16T23:39:43.729Z,100486.20
2023-04-16T23:42:20.790Z,100487.80
2023-04-16T23:44:58.207Z,100487.40
2023-04-16T23:47:34.537Z,100484.00
2023-04-16T23:50:14.360Z,100479.20
2023-04-16T23:52:51.468Z,100480.40
2023-04-16T23:55:29.117Z,100481.00
2023-04-16T23:58:06.011Z,100475.80
